LiveATC.Net - Listen to live air traffic control over the Internet!


ICAO: 47N  IATA: 47N   Airport: Central Jersey Regional Airport
City: Manville   State/Province: New Jersey
Country: United States   Continent: North America
KTTN METAR Weather: KTTN 200153Z AUTO 16006KT 10SM CLR 03/M03 A3041 RMK AO2 SLP292 T00281033
47N Flight Activity (FlightAware)
47N Airport Info   (iFlightPlanner)
47N VFR Sectional Chart   (iFlightPlanner) 
47N IFR Low Chart   (iFlightPlanner) 

47N CTAF
Feed Status: UP   Listeners: 0
Listen in your browser - HTML5 player (in browser, HTML5)
Click here to listen with your own player (launches your MP3 player)
47N CTAF Audio Archives
FacilityFrequency
Central Jersey CTAF122.700

NOTICE

Unauthorized use prohibited. See LiveATC.net Terms of Service


Find LiveATC Audio Streams


Airport/ARTCC Code

Frequency Search
(e.g., 124.400, 128.75)
Site-wide search
 


Browse LiveATC Feeds
Top 50 LiveATC Feeds
LiveATC Feed Map
Bad Weather Areas

LiveATC FAQ
Offer LiveATC feed
Contact LiveATC.net
Press Inquiries

LiveATC on iPhone
LiveATC on Android

Windows Phone
Windows 8/10

LiveATC Mobile
(Mobile browser)

ATC Audio Archives
Interesting Recordings

LiveATC Forums


Home Page
About LiveATC.net
Make a Donation
Terms of Use
Privacy Policy

Canadian Air Freqs

AIRMETs/SIGMETs

FAA Airport Status
Nat'l Airspace Status
Arrival Demand Charts


Server Software By:
Icecast.org
Liquidsoap